Time;durP1;ratioP1;P1;durP2;ratioP2;P2;SDS_P1;SDS_P2;PMS_P1;PMS_P2;Temp;Humidity;BMP_temperature;BMP_pressure;BME280_temperature;BME280_humidity;BME280_pressure;Samples;Min_cycle;Max_cycle;Signal;HPM_P1;HPM_P2
2023/05/14 00:01:10;;;;;;;10.80;9.15;;;26.00;99.90;;;;;;1828493;78;21198;-85
2023/05/14 00:03:42;;;;;;;16.15;11.20;;;25.90;99.90;;;;;;1808117;78;21092;-86
2023/05/14 00:06:13;;;;;;;15.58;9.85;;;25.90;99.90;;;;;;1794105;78;21222;-84
2023/05/14 00:08:44;;;;;;;11.78;9.00;;;26.00;99.90;;;;;;1824318;77;21220;-85
2023/05/14 00:11:17;;;;;;;15.32;10.58;;;25.90;99.90;;;;;;1809803;78;21737;-85
2023/05/14 00:13:49;;;;;;;15.00;9.65;;;26.00;99.90;;;;;;1822166;77;21228;-85
2023/05/14 00:16:22;;;;;;;11.12;9.38;;;25.90;99.90;;;;;;1808749;77;21171;-84
2023/05/14 00:18:53;;;;;;;15.85;10.50;;;26.00;99.90;;;;;;1817232;77;21216;-84
2023/05/14 00:21:24;;;;;;;10.48;9.10;;;26.10;99.90;;;;;;1793933;78;21169;-85
2023/05/14 00:23:55;;;;;;;9.40;8.38;;;26.10;99.90;;;;;;1813950;77;21622;-85
2023/05/14 00:26:27;;;;;;;11.55;8.93;;;26.20;99.90;;;;;;1799036;78;21846;-85
2023/05/14 00:28:58;;;;;;;14.30;9.10;;;26.20;99.90;;;;;;1822050;77;21765;-85
2023/05/14 00:31:29;;;;;;;11.45;9.60;;;26.20;99.90;;;;;;1811917;78;21305;-85
2023/05/14 00:34:00;;;;;;;12.30;9.13;;;26.20;99.90;;;;;;1808929;78;21591;-85
2023/05/14 00:36:33;;;;;;;11.90;8.90;;;26.20;99.90;;;;;;1810040;77;21083;-85
2023/05/14 00:39:04;;;;;;;14.18;9.35;;;26.20;99.90;;;;;;1807707;78;21166;-84
2023/05/14 00:41:35;;;;;;;14.87;9.40;;;26.20;99.90;;;;;;1804143;78;21236;-85
2023/05/14 00:44:06;;;;;;;13.43;9.60;;;26.20;99.90;;;;;;1809395;78;21146;-84
2023/05/14 00:46:37;;;;;;;13.50;9.58;;;26.30;99.90;;;;;;1774748;79;21190;-84
2023/05/14 00:49:09;;;;;;;11.12;9.45;;;26.30;99.90;;;;;;1800539;78;21598;-85
2023/05/14 00:51:48;;;;;;;15.68;11.10;;;26.30;99.90;;;;;;1811736;78;21571;-86
2023/05/14 00:54:20;;;;;;;14.43;9.13;;;26.40;99.90;;;;;;1806888;78;21103;-85
2023/05/14 00:56:53;;;;;;;12.05;9.03;;;26.40;99.90;;;;;;1806061;78;21705;-83
2023/05/14 00:59:24;;;;;;;12.73;8.50;;;26.50;99.90;;;;;;1812313;78;21150;-86
2023/05/14 01:01:56;;;;;;;11.97;9.18;;;26.50;99.90;;;;;;1804385;78;21276;-86
2023/05/14 01:04:28;;;;;;;9.25;8.03;;;26.60;99.90;;;;;;1788671;79;21178;-86
2023/05/14 01:07:22;;;;;;;14.07;8.90;;;26.60;99.90;;;;;;1803372;78;21114;-84
2023/05/14 01:10:16;;;;;;;13.20;9.40;;;26.60;99.90;;;;;;1767208;79;21181;-85
2023/05/14 01:12:52;;;;;;;11.25;8.10;;;26.60;99.90;;;;;;1792764;78;21189;-84
2023/05/14 01:15:25;;;;;;;11.40;8.10;;;26.60;99.90;;;;;;1811851;78;21197;-85
2023/05/14 01:17:59;;;;;;;10.85;8.40;;;26.70;99.90;;;;;;1795700;79;21190;-85
2023/05/14 01:20:30;;;;;;;11.12;7.17;;;26.80;99.90;;;;;;1806755;78;21221;-84
2023/05/14 01:23:02;;;;;;;10.13;7.53;;;26.80;99.90;;;;;;1815994;78;21118;-83
2023/05/14 01:25:36;;;;;;;9.28;7.28;;;26.80;99.90;;;;;;1781001;79;21162;-83
2023/05/14 01:28:10;;;;;;;9.53;6.67;;;26.90;99.90;;;;;;1804682;78;21161;-82
2023/05/14 01:30:56;;;;;;;8.35;6.83;;;27.00;99.90;;;;;;1789863;79;21147;-82
2023/05/14 01:33:29;;;;;;;11.83;7.80;;;27.00;99.90;;;;;;1809113;78;21095;-84
2023/05/14 01:36:01;;;;;;;9.73;6.40;;;27.00;99.90;;;;;;1805777;78;21232;-84
2023/05/14 01:38:34;;;;;;;8.95;7.65;;;27.00;99.90;;;;;;1802159;78;21195;-82
2023/05/14 01:41:09;;;;;;;11.35;7.00;;;27.00;99.90;;;;;;1781140;79;21158;-82
2023/05/14 01:43:41;;;;;;;10.45;7.03;;;27.00;99.90;;;;;;1779344;79;21206;-84
2023/05/14 01:46:15;;;;;;;9.28;7.05;;;27.00;99.90;;;;;;1807867;78;21086;-85
2023/05/14 01:48:47;;;;;;;7.12;6.42;;;27.10;99.90;;;;;;1803334;78;21189;-84
2023/05/14 01:51:18;;;;;;;7.78;6.12;;;27.10;99.90;;;;;;1770954;79;21182;-83
2023/05/14 01:53:50;;;;;;;8.90;5.85;;;27.10;99.90;;;;;;1807664;78;21189;-85
2023/05/14 01:56:22;;;;;;;11.20;6.97;;;27.10;99.90;;;;;;1773676;79;21173;-83
2023/05/14 01:58:55;;;;;;;7.55;6.12;;;27.20;99.90;;;;;;1798398;78;21101;-84
2023/05/14 02:01:27;;;;;;;7.72;5.50;;;27.20;99.90;;;;;;1797760;78;21185;-84
2023/05/14 02:03:59;;;;;;;8.50;5.90;;;27.30;99.90;;;;;;1799748;78;21202;-84
2023/05/14 02:06:31;;;;;;;6.85;5.40;;;27.40;99.90;;;;;;1798732;78;21146;-83
2023/05/14 02:09:02;;;;;;;8.50;5.67;;;27.50;99.90;;;;;;1791746;78;21090;-83
2023/05/14 02:11:33;;;;;;;7.05;6.33;;;27.70;99.90;;;;;;1808316;78;21097;-85
2023/05/14 02:14:04;;;;;;;8.68;5.70;;;27.70;99.90;;;;;;1805808;78;21158;-84
2023/05/14 02:16:35;;;;;;;9.83;5.35;;;27.70;99.90;;;;;;1795916;78;21131;-84
2023/05/14 02:19:07;;;;;;;9.00;6.12;;;27.70;99.90;;;;;;1803943;78;21147;-85
2023/05/14 02:21:41;;;;;;;7.12;5.58;;;27.70;99.90;;;;;;1768713;79;21101;-86
2023/05/14 02:24:12;;;;;;;9.60;6.58;;;27.70;99.90;;;;;;1772339;80;21214;-83
2023/05/14 02:26:44;;;;;;;8.88;5.67;;;27.70;99.90;;;;;;1798237;78;21166;-83
2023/05/14 02:29:16;;;;;;;9.68;5.83;;;27.80;99.90;;;;;;1808552;77;21209;-81
2023/05/14 02:31:50;;;;;;;13.65;6.15;;;27.80;99.90;;;;;;1766943;79;21171;-82
2023/05/14 02:34:24;;;;;;;7.50;5.65;;;28.00;99.90;;;;;;1768475;80;21324;-82
2023/05/14 02:36:55;;;;;;;9.13;6.00;;;28.10;99.90;;;;;;1770389;80;21205;-84
2023/05/14 02:39:26;;;;;;;7.08;5.75;;;28.10;99.90;;;;;;1767642;80;21115;-83
2023/05/14 02:41:57;;;;;;;8.95;5.92;;;28.10;99.90;;;;;;1752650;79;21497;-83
2023/05/14 02:44:30;;;;;;;7.03;5.60;;;28.20;99.90;;;;;;1771912;80;21209;-82
2023/05/14 02:47:01;;;;;;;9.13;5.60;;;28.20;99.90;;;;;;1764339;80;21217;-81
2023/05/14 02:49:33;;;;;;;9.90;6.40;;;28.20;99.90;;;;;;1824448;77;21691;-83
2023/05/14 02:52:06;;;;;;;7.62;6.22;;;28.20;99.90;;;;;;1822251;78;21230;-84
2023/05/14 02:54:37;;;;;;;7.78;6.10;;;28.20;99.90;;;;;;1809857;78;21245;-82
2023/05/14 02:57:13;;;;;;;8.28;6.53;;;28.20;99.90;;;;;;1820952;78;21227;-82
2023/05/14 02:59:41;;;;;;;6.92;6.22;;;28.10;99.90;;;;;;1810982;78;21128;-82
2023/05/14 03:02:14;;;;;;;7.60;5.67;;;28.20;99.90;;;;;;1823203;77;21882;-83
2023/05/14 03:04:47;;;;;;;6.42;5.35;;;28.10;99.90;;;;;;1805518;78;21115;-82
2023/05/14 03:07:18;;;;;;;12.45;5.72;;;28.20;99.90;;;;;;1783915;79;21154;-82
2023/05/14 03:09:49;;;;;;;7.42;6.15;;;28.30;99.90;;;;;;1828260;77;21099;-85
2023/05/14 03:12:21;;;;;;;6.95;6.03;;;28.30;99.90;;;;;;1818233;78;21269;-84
2023/05/14 03:14:52;;;;;;;6.90;6.20;;;28.30;99.90;;;;;;1793822;78;21115;-83
2023/05/14 03:17:24;;;;;;;7.12;5.90;;;28.30;99.90;;;;;;1776213;79;21225;-84
2023/05/14 03:19:55;;;;;;;7.40;6.30;;;28.40;99.90;;;;;;1777883;79;21091;-83
2023/05/14 03:22:27;;;;;;;8.63;6.33;;;28.50;99.90;;;;;;1786058;79;21286;-83
2023/05/14 03:24:58;;;;;;;7.55;5.70;;;28.70;99.90;;;;;;1769442;80;21175;-84
2023/05/14 03:27:29;;;;;;;8.75;5.75;;;28.80;99.90;;;;;;1772154;79;21175;-83
2023/05/14 03:30:01;;;;;;;9.53;6.22;;;28.90;99.90;;;;;;1726540;81;21313;-83
2023/05/14 03:32:43;;;;;;;;;;;;;;;;;;;;;
2023/05/14 03:35:19;;;;;;;9.78;6.03;;;28.90;99.90;;;;;;1746535;80;21165;-83
2023/05/14 03:38:12;;;;;;;9.08;5.97;;;28.90;99.90;;;;;;1818566;78;21165;-83
2023/05/14 03:40:59;;;;;;;8.50;6.05;;;28.90;99.90;;;;;;1834713;77;21906;-84
2023/05/14 03:43:44;;;;;;;;;;;;;;;;;;;;;
2023/05/14 03:46:28;;;;;;;;;;;;;;;;;;;;;
2023/05/14 03:49:07;;;;;;;9.85;5.87;;;28.80;99.90;;;;;;1795340;78;21099;-85
2023/05/14 03:51:43;;;;;;;10.10;7.10;;;28.80;99.90;;;;;;1806443;78;21158;-84
2023/05/14 03:54:11;;;;;;;8.75;6.10;;;28.80;99.90;;;;;;1800514;78;21579;-85
2023/05/14 03:56:42;;;;;;;7.95;5.72;;;28.80;99.90;;;;;;1799172;78;21169;-79
2023/05/14 03:59:14;;;;;;;8.35;5.85;;;28.90;99.90;;;;;;1811672;78;21150;-81
2023/05/14 04:01:45;;;;;;;12.40;6.30;;;29.10;99.90;;;;;;1816784;77;21256;-81
2023/05/14 04:04:16;;;;;;;7.33;5.60;;;29.30;99.90;;;;;;1806898;77;21245;-79
2023/05/14 04:06:48;;;;;;;9.33;6.50;;;29.50;99.90;;;;;;1809772;78;21169;-78
2023/05/14 04:09:20;;;;;;;8.83;5.50;;;29.60;99.90;;;;;;1816394;78;21099;-78
2023/05/14 04:11:51;;;;;;;10.00;5.92;;;29.90;99.90;;;;;;1814325;78;21241;-80
2023/05/14 04:14:22;;;;;;;11.57;5.95;;;30.00;99.90;;;;;;1806709;77;21099;-78
2023/05/14 04:16:54;;;;;;;8.25;5.60;;;30.10;99.90;;;;;;1803135;78;21150;-79
2023/05/14 04:19:27;;;;;;;7.17;5.17;;;30.10;99.90;;;;;;1821686;77;22115;-78
2023/05/14 04:22:05;;;;;;;7.85;5.50;;;30.20;99.90;;;;;;1810697;78;21206;-79
2023/05/14 04:24:36;;;;;;;8.00;5.37;;;30.30;99.90;;;;;;1802133;78;21591;-79
2023/05/14 04:27:07;;;;;;;7.47;5.60;;;30.30;99.90;;;;;;1812656;78;21158;-79
2023/05/14 04:29:38;;;;;;;8.18;5.90;;;30.40;99.90;;;;;;1797637;78;21095;-81
2023/05/14 04:32:09;;;;;;;10.25;5.50;;;30.50;99.90;;;;;;1815826;77;21680;-79
2023/05/14 04:34:40;;;;;;;8.98;5.30;;;30.50;99.90;;;;;;1800189;78;21138;-80
2023/05/14 04:37:12;;;;;;;8.03;5.37;;;30.40;99.90;;;;;;1768184;80;21116;-79
2023/05/14 04:39:43;;;;;;;8.93;5.72;;;30.40;99.90;;;;;;1819953;77;21158;-79
2023/05/14 04:42:14;;;;;;;6.00;5.37;;;30.50;99.90;;;;;;1795329;78;21143;-77
2023/05/14 04:44:45;;;;;;;5.92;5.08;;;30.60;99.90;;;;;;1806753;78;21596;-79
2023/05/14 04:47:20;;;;;;;8.85;5.75;;;30.70;99.90;;;;;;1797671;78;21677;-78
2023/05/14 04:49:52;;;;;;;7.83;5.33;;;30.80;99.90;;;;;;1811331;78;21269;-78
2023/05/14 04:52:23;;;;;;;8.00;4.97;;;30.90;99.90;;;;;;1809872;78;21606;-79
2023/05/14 04:54:55;;;;;;;9.33;5.45;;;30.80;99.90;;;;;;1816472;77;21122;-79
2023/05/14 04:57:27;;;;;;;7.15;5.05;;;30.80;99.90;;;;;;1793869;78;21647;-78
2023/05/14 04:59:58;;;;;;;6.50;5.22;;;30.80;99.90;;;;;;1808589;77;21205;-79
2023/05/14 05:02:30;;;;;;;6.35;5.10;;;30.80;99.90;;;;;;1801030;78;21493;-79
2023/05/14 05:05:02;;;;;;;8.85;5.08;;;30.80;99.90;;;;;;1809657;77;21122;-79
2023/05/14 05:07:33;;;;;;;8.48;5.08;;;30.80;99.90;;;;;;1829686;77;21166;-77
2023/05/14 05:10:05;;;;;;;5.42;4.60;;;30.80;99.90;;;;;;1803247;78;21137;-82
2023/05/14 05:12:36;;;;;;;8.68;6.53;;;30.70;99.90;;;;;;1802145;77;21134;-80
2023/05/14 05:15:08;;;;;;;7.80;5.28;;;30.70;99.90;;;;;;1813575;78;21083;-80
2023/05/14 05:17:40;;;;;;;8.55;4.92;;;30.70;99.90;;;;;;1829059;78;21166;-79
2023/05/14 05:20:12;;;;;;;8.55;4.87;;;30.90;99.90;;;;;;1819966;78;21576;-80
2023/05/14 05:22:43;;;;;;;6.95;4.58;;;31.00;99.90;;;;;;1804736;77;21177;-79
2023/05/14 05:25:16;;;;;;;6.78;4.87;;;31.20;99.90;;;;;;1813305;78;21311;-79
2023/05/14 05:27:48;;;;;;;7.60;5.30;;;31.20;99.90;;;;;;1811665;77;21619;-80
2023/05/14 05:30:19;;;;;;;9.60;5.17;;;31.20;99.90;;;;;;1803780;78;21137;-78
2023/05/14 05:32:50;;;;;;;5.50;4.70;;;31.20;99.90;;;;;;1819458;77;21186;-78
2023/05/14 05:35:22;;;;;;;6.87;4.70;;;31.30;99.90;;;;;;1810770;79;21115;-81
2023/05/14 05:37:53;;;;;;;6.62;4.60;;;31.40;99.90;;;;;;1825762;78;21115;-79
2023/05/14 05:40:24;;;;;;;11.50;5.05;;;31.50;99.90;;;;;;1805509;79;21217;-79
2023/05/14 05:42:55;;;;;;;7.17;5.33;;;31.50;99.90;;;;;;1781506;80;21166;-80
2023/05/14 05:45:27;;;;;;;6.45;4.80;;;31.60;99.90;;;;;;1830152;78;21094;-80
2023/05/14 05:47:58;;;;;;;10.60;5.62;;;31.60;99.90;;;;;;1824043;77;21151;-80
2023/05/14 05:50:32;;;;;;;6.80;4.40;;;31.50;99.90;;;;;;1800506;79;21110;-77
2023/05/14 05:53:03;;;;;;;9.35;5.03;;;31.40;99.90;;;;;;1807679;78;21194;-83
2023/05/14 05:55:34;;;;;;;9.53;5.30;;;31.20;99.90;;;;;;1823594;78;21083;-79
2023/05/14 05:58:05;;;;;;;8.58;5.42;;;31.20;99.90;;;;;;1766770;81;21102;-80
2023/05/14 06:00:36;;;;;;;10.10;5.58;;;31.00;99.90;;;;;;1814886;77;21153;-79
2023/05/14 06:03:07;;;;;;;9.93;5.33;;;31.00;99.90;;;;;;1806703;78;21150;-80
2023/05/14 06:05:39;;;;;;;5.45;4.30;;;30.90;99.90;;;;;;1818344;78;21150;-79
2023/05/14 06:08:10;;;;;;;7.33;4.67;;;31.00;99.90;;;;;;1823623;78;21606;-80
2023/05/14 06:10:42;;;;;;;9.55;5.40;;;31.10;99.90;;;;;;1812671;78;21157;-79
2023/05/14 06:13:14;;;;;;;6.97;4.55;;;31.10;99.90;;;;;;1811014;78;21122;-79
2023/05/14 06:15:45;;;;;;;7.22;4.90;;;31.10;99.90;;;;;;1815791;78;21138;-78
2023/05/14 06:18:16;;;;;;;6.80;4.75;;;31.20;99.90;;;;;;1815137;78;21111;-79
2023/05/14 06:20:47;;;;;;;6.72;4.65;;;31.20;99.90;;;;;;1818550;78;21166;-79
2023/05/14 06:23:19;;;;;;;5.45;4.87;;;31.20;99.90;;;;;;1795611;78;21139;-81
2023/05/14 06:25:51;;;;;;;8.23;4.80;;;31.20;99.90;;;;;;1816086;78;21113;-83
2023/05/14 06:28:23;;;;;;;7.72;5.00;;;31.30;99.90;;;;;;1797853;78;21170;-78
2023/05/14 06:30:54;;;;;;;10.65;5.35;;;31.40;99.90;;;;;;1818195;78;21154;-80
2023/05/14 06:33:29;;;;;;;8.20;4.58;;;31.40;99.90;;;;;;1807879;78;21494;-80
2023/05/14 06:36:00;;;;;;;7.25;4.78;;;31.50;99.90;;;;;;1817873;78;21223;-80
2023/05/14 06:38:31;;;;;;;8.33;5.25;;;31.60;99.90;;;;;;1820230;78;21169;-79
2023/05/14 06:41:02;;;;;;;12.28;4.97;;;31.60;99.90;;;;;;1806574;78;21248;-79
2023/05/14 06:43:33;;;;;;;6.87;4.62;;;31.70;99.90;;;;;;1809080;77;21099;-80
2023/05/14 06:46:04;;;;;;;7.47;4.50;;;31.80;99.90;;;;;;1810354;78;21190;-80
2023/05/14 06:48:35;;;;;;;8.00;4.40;;;31.80;99.90;;;;;;1803944;78;21178;-82
2023/05/14 06:51:07;;;;;;;6.05;4.28;;;31.90;99.90;;;;;;1775339;79;21626;-79
2023/05/14 06:53:38;;;;;;;7.95;4.85;;;31.80;99.90;;;;;;1806115;77;21096;-79
2023/05/14 06:56:10;;;;;;;9.28;4.70;;;31.90;99.90;;;;;;1818852;78;21197;-80
2023/05/14 06:58:42;;;;;;;6.30;4.60;;;31.90;99.90;;;;;;1808272;78;21594;-81
2023/05/14 07:01:13;;;;;;;5.70;4.30;;;31.80;99.90;;;;;;1729206;81;21154;-79
2023/05/14 07:03:49;;;;;;;7.35;4.65;;;31.70;99.90;;;;;;1770617;80;21213;-80
2023/05/14 07:06:18;;;;;;;10.80;4.65;;;31.70;99.90;;;;;;1769939;79;21174;-80
2023/05/14 07:08:49;;;;;;;7.95;4.65;;;31.70;99.90;;;;;;1811641;79;21139;-80
2023/05/14 07:11:21;;;;;;;10.82;5.40;;;31.70;99.90;;;;;;1802517;79;21157;-79
2023/05/14 07:13:52;;;;;;;7.87;4.35;;;31.60;99.90;;;;;;1797639;79;21146;-79
2023/05/14 07:16:24;;;;;;;6.92;3.90;;;31.60;99.90;;;;;;1802568;79;21159;-79
2023/05/14 07:18:55;;;;;;;8.80;4.33;;;31.50;99.90;;;;;;1802200;79;21189;-80
2023/05/14 07:21:26;;;;;;;6.90;4.45;;;31.50;99.90;;;;;;1800486;79;21235;-79
2023/05/14 07:23:58;;;;;;;11.78;5.90;;;31.50;99.90;;;;;;1808625;79;21071;-79
2023/05/14 07:26:30;;;;;;;6.72;4.08;;;31.50;99.90;;;;;;1799791;79;21669;-80
2023/05/14 07:29:01;;;;;;;8.98;5.33;;;31.60;99.90;;;;;;1799505;79;21186;-81
2023/05/14 07:31:32;;;;;;;8.98;4.80;;;31.60;99.90;;;;;;1780577;80;21182;-79
2023/05/14 07:34:03;;;;;;;7.40;4.85;;;31.60;99.90;;;;;;1798154;78;21199;-79
2023/05/14 07:36:34;;;;;;;11.08;5.08;;;31.70;99.90;;;;;;1743389;81;21165;-79
2023/05/14 07:39:06;;;;;;;9.98;4.92;;;31.70;99.90;;;;;;1817141;79;21193;-79
2023/05/14 07:41:37;;;;;;;9.05;4.83;;;31.70;99.90;;;;;;1796888;79;21588;-76
2023/05/14 07:44:08;;;;;;;10.48;5.25;;;31.80;99.90;;;;;;1793285;79;21294;-78
2023/05/14 07:46:40;;;;;;;6.47;4.72;;;31.80;99.90;;;;;;1811768;79;21143;-78
2023/05/14 07:49:11;;;;;;;7.53;4.45;;;31.80;99.90;;;;;;1792957;79;21150;-78
2023/05/14 07:51:42;;;;;;;8.63;4.95;;;31.90;99.90;;;;;;1793598;79;21197;-82
2023/05/14 07:54:13;;;;;;;6.92;4.45;;;31.90;99.90;;;;;;1780794;80;21230;-84
2023/05/14 07:56:44;;;;;;;9.10;4.70;;;32.00;99.90;;;;;;1796370;79;21857;-82
2023/05/14 07:59:17;;;;;;;6.50;4.37;;;32.00;99.90;;;;;;1803439;79;21091;-82
2023/05/14 08:01:48;;;;;;;10.08;4.70;;;32.00;99.90;;;;;;1770035;80;21166;-83
2023/05/14 08:04:22;;;;;;;7.65;4.60;;;32.00;99.90;;;;;;1799676;79;21223;-83
2023/05/14 08:06:57;;;;;;;8.58;4.70;;;32.00;99.90;;;;;;1792089;78;22227;-84
2023/05/14 08:09:29;;;;;;;7.03;4.65;;;31.90;99.90;;;;;;1809949;78;21776;-82
2023/05/14 08:12:02;;;;;;;7.28;5.00;;;31.90;99.90;;;;;;1794979;78;21186;-82
2023/05/14 08:14:38;;;;;;;7.28;4.60;;;31.90;99.90;;;;;;1811762;77;21275;-83
2023/05/14 08:17:12;;;;;;;10.78;4.97;;;31.80;99.90;;;;;;1795520;78;21626;-81
2023/05/14 08:19:46;;;;;;;7.70;4.50;;;31.80;99.90;;;;;;1819453;77;21114;-80
2023/05/14 08:22:24;;;;;;;5.87;4.37;;;31.70;99.90;;;;;;1804963;78;21123;-82
2023/05/14 08:24:55;;;;;;;8.23;5.70;;;31.70;99.90;;;;;;1810031;77;21138;-82
2023/05/14 08:27:58;;;;;;;17.77;6.07;;;31.60;99.90;;;;;;1800879;78;21222;-82
2023/05/14 08:30:11;;;;;;;6.47;5.03;;;31.70;99.90;;;;;;1805037;78;21251;-83
2023/05/14 08:32:42;;;;;;;8.38;5.08;;;31.60;99.90;;;;;;1799478;78;21229;-83
2023/05/14 08:35:13;;;;;;;9.93;4.47;;;31.60;99.90;;;;;;1813938;77;21197;-84
2023/05/14 08:37:49;;;;;;;9.45;4.62;;;31.70;99.90;;;;;;1793354;78;21178;-83
2023/05/14 08:40:22;;;;;;;11.73;5.87;;;31.80;99.90;;;;;;1818669;78;21197;-82
2023/05/14 08:42:55;;;;;;;6.62;4.53;;;31.90;99.90;;;;;;1806333;78;21162;-83
2023/05/14 08:45:33;;;;;;;7.60;4.58;;;31.90;99.90;;;;;;1808657;78;21178;-83
2023/05/14 08:48:07;;;;;;;7.47;4.87;;;32.00;99.90;;;;;;1808529;78;21169;-82
2023/05/14 08:50:39;;;;;;;6.85;4.45;;;32.00;99.90;;;;;;1802797;78;21160;-82
2023/05/14 08:53:10;;;;;;;7.08;4.53;;;32.00;99.90;;;;;;1798784;78;21731;-80
2023/05/14 08:55:43;;;;;;;6.20;4.25;;;32.10;99.70;;;;;;1796867;78;21204;-80
2023/05/14 08:58:15;;;;;;;8.25;4.58;;;32.10;99.70;;;;;;1818328;78;21602;-82
2023/05/14 09:00:46;;;;;;;9.10;5.12;;;32.10;98.90;;;;;;1811553;78;21119;-82
2023/05/14 09:03:20;;;;;;;6.30;4.65;;;32.10;99.90;;;;;;1768575;79;21166;-82
2023/05/14 09:05:53;;;;;;;7.95;4.45;;;32.10;99.70;;;;;;1780639;79;21232;-80
2023/05/14 09:08:28;;;;;;;6.85;4.80;;;32.10;99.90;;;;;;1801089;78;21812;-81
2023/05/14 09:10:58;;;;;;;8.68;4.55;;;32.10;99.60;;;;;;1808929;77;21087;-81
2023/05/14 09:13:38;;;;;;;11.25;6.28;;;32.10;99.90;;;;;;1787507;79;21149;-81
2023/05/14 09:16:12;;;;;;;5.65;4.17;;;32.10;99.80;;;;;;1784397;79;21191;-82
2023/05/14 09:18:48;;;;;;;8.08;4.83;;;32.00;99.50;;;;;;1817093;77;21235;-81
2023/05/14 09:21:20;;;;;;;12.00;5.30;;;32.10;99.50;;;;;;1810780;78;21229;-81
2023/05/14 09:23:54;;;;;;;8.35;4.80;;;32.10;99.80;;;;;;1828944;77;21189;-81
2023/05/14 09:26:31;;;;;;;8.08;5.58;;;32.10;99.20;;;;;;1810182;78;21112;-80
2023/05/14 09:29:01;;;;;;;7.20;4.95;;;32.10;99.90;;;;;;1806906;77;21170;-82
2023/05/14 09:31:36;;;;;;;9.63;4.67;;;32.10;99.50;;;;;;1810899;77;21873;-81
2023/05/14 09:34:09;;;;;;;7.50;5.60;;;32.10;99.20;;;;;;1811716;78;21247;-83
2023/05/14 09:36:44;;;;;;;8.78;5.50;;;32.10;99.40;;;;;;1817745;78;21669;-82
2023/05/14 09:39:23;;;;;;;7.45;5.15;;;32.10;99.10;;;;;;1810576;78;21170;-83
2023/05/14 09:41:57;;;;;;;10.45;5.85;;;32.10;99.50;;;;;;1823339;77;21201;-84
2023/05/14 09:44:36;;;;;;;9.33;5.97;;;32.10;99.90;;;;;;1815008;78;21641;-81
2023/05/14 09:47:07;;;;;;;9.45;4.85;;;32.10;99.90;;;;;;1820325;78;21197;-80
2023/05/14 09:49:40;;;;;;;7.40;4.37;;;32.10;99.20;;;;;;1819121;79;21248;-82
2023/05/14 09:52:12;;;;;;;7.75;5.08;;;32.10;99.00;;;;;;1790271;79;21150;-82
2023/05/14 09:54:46;;;;;;;9.53;4.67;;;32.10;98.80;;;;;;1802122;77;21150;-81
2023/05/14 09:57:30;;;;;;;6.00;4.62;;;32.00;99.20;;;;;;1810874;78;21759;-79
2023/05/14 10:00:09;;;;;;;9.08;5.15;;;32.00;99.10;;;;;;1810257;77;21208;-81
2023/05/14 10:02:40;;;;;;;8.30;4.85;;;32.00;99.40;;;;;;1803332;78;21118;-81
2023/05/14 10:05:16;;;;;;;8.45;4.70;;;31.90;98.90;;;;;;1819838;77;21151;-81
2023/05/14 10:07:53;;;;;;;8.88;4.40;;;31.90;99.10;;;;;;1809931;77;21920;-81
2023/05/14 10:10:27;;;;;;;7.55;4.03;;;31.90;98.60;;;;;;1789716;79;21217;-81
2023/05/14 10:13:09;;;;;;;8.73;5.55;;;31.90;99.20;;;;;;1767846;80;21750;-81
2023/05/14 10:16:13;;;;;;;8.70;5.75;;;31.90;99.00;;;;;;1764645;79;21165;-82
2023/05/14 10:18:50;;;;;;;7.30;5.03;;;31.80;99.10;;;;;;1801392;78;21194;-82
2023/05/14 10:21:24;;;;;;;7.95;5.55;;;31.80;99.00;;;;;;1817938;78;21169;-80
2023/05/14 10:23:59;;;;;;;14.05;8.50;;;31.80;99.10;;;;;;1777136;79;21543;-80
2023/05/14 10:26:40;;;;;;;11.55;6.17;;;31.80;99.40;;;;;;1804433;78;22490;-83
2023/05/14 10:29:17;;;;;;;9.25;5.22;;;31.80;99.50;;;;;;1814396;78;21103;-83
2023/05/14 10:31:50;;;;;;;10.93;6.03;;;31.70;99.40;;;;;;1806072;78;21621;-84
2023/05/14 10:34:41;;;;;;;10.78;7.67;;;31.70;99.40;;;;;;1781177;79;21139;-85
2023/05/14 10:37:14;;;;;;;9.73;6.47;;;31.70;99.40;;;;;;1812649;78;21196;-86
2023/05/14 10:39:53;;;;;;;8.68;5.72;;;31.70;99.60;;;;;;1812865;78;21162;-85
2023/05/14 10:42:30;;;;;;;9.45;5.45;;;31.70;99.30;;;;;;1819257;78;21213;-85
2023/05/14 10:45:06;;;;;;;10.23;6.22;;;31.60;99.50;;;;;;1806931;78;21236;-83
2023/05/14 10:47:44;;;;;;;8.45;5.22;;;31.60;99.10;;;;;;1809273;78;21067;-85
2023/05/14 10:50:16;;;;;;;9.73;5.50;;;31.60;99.40;;;;;;1767381;80;21193;-84
2023/05/14 10:52:47;;;;;;;8.80;4.95;;;31.60;99.50;;;;;;1795790;78;21154;-84
2023/05/14 10:55:18;;;;;;;9.03;5.50;;;31.60;99.30;;;;;;1806082;79;21161;-85
2023/05/14 10:57:51;;;;;;;8.45;4.90;;;31.60;98.90;;;;;;1770765;80;21153;-85
2023/05/14 11:00:24;;;;;;;6.37;4.67;;;31.60;98.90;;;;;;1815072;78;21562;-82
2023/05/14 11:02:57;;;;;;;10.70;4.85;;;31.60;99.30;;;;;;1799409;78;21123;-80
2023/05/14 11:05:36;;;;;;;9.18;5.15;;;31.60;99.40;;;;;;1781093;79;22146;-82
2023/05/14 11:08:04;;;;;;;9.13;6.12;;;31.60;99.00;;;;;;1783654;79;21308;-82
2023/05/14 11:10:37;;;;;;;11.50;5.70;;;31.60;99.20;;;;;;1797010;78;21090;-83
2023/05/14 11:13:11;;;;;;;11.97;5.42;;;31.60;99.60;;;;;;1810208;78;21157;-82
2023/05/14 11:15:54;;;;;;;10.00;4.97;;;31.50;99.90;;;;;;1794269;78;21193;-83
2023/05/14 11:18:37;;;;;;;12.63;5.28;;;31.40;99.90;;;;;;1789801;78;21586;-82
2023/05/14 11:21:07;;;;;;;9.23;5.28;;;31.20;99.80;;;;;;1800771;78;21201;-82
2023/05/14 11:23:39;;;;;;;13.93;5.37;;;31.00;99.90;;;;;;1776900;79;21103;-84
2023/05/14 11:26:11;;;;;;;9.63;5.42;;;30.90;99.90;;;;;;1793701;78;21202;-82
2023/05/14 11:28:42;;;;;;;10.88;5.30;;;30.70;99.90;;;;;;1800793;78;21156;-81
2023/05/14 11:31:31;;;;;;;7.80;4.55;;;30.70;99.90;;;;;;1803765;78;21103;-82
2023/05/14 11:33:49;;;;;;;8.73;4.45;;;30.50;99.90;;;;;;1778200;79;21626;-82
2023/05/14 11:36:20;;;;;;;14.15;4.87;;;30.50;99.90;;;;;;1813749;78;21107;-81
2023/05/14 11:38:52;;;;;;;6.42;4.05;;;30.40;99.90;;;;;;1778973;79;21162;-82
2023/05/14 11:41:25;;;;;;;6.67;4.45;;;30.40;99.90;;;;;;1806703;78;21189;-82
2023/05/14 11:43:56;;;;;;;8.70;4.53;;;30.40;99.90;;;;;;1780187;80;21800;-81
2023/05/14 11:46:29;;;;;;;8.28;4.45;;;30.30;99.90;;;;;;1804041;78;21205;-84
2023/05/14 11:49:00;;;;;;;8.70;4.42;;;30.30;99.90;;;;;;1803798;78;21299;-83
2023/05/14 11:51:31;;;;;;;11.97;4.15;;;30.30;99.90;;;;;;1795074;78;21162;-81
2023/05/14 11:54:09;;;;;;;7.60;4.50;;;30.30;99.90;;;;;;1804485;78;21184;-83
2023/05/14 11:57:07;;;;;;;10.60;5.33;;;30.30;99.90;;;;;;1775778;79;21744;-83
2023/05/14 11:59:35;;;;;;;10.90;4.87;;;30.30;99.90;;;;;;1761464;80;21240;-83
2023/05/14 12:02:13;;;;;;;9.68;6.25;;;30.30;99.90;;;;;;1791980;78;21210;-82
2023/05/14 12:04:45;;;;;;;9.55;6.12;;;30.30;99.90;;;;;;1789400;78;21256;-83
2023/05/14 12:07:17;;;;;;;10.85;4.90;;;30.30;99.90;;;;;;1781038;79;21236;-91
2023/05/14 12:09:50;;;;;;;11.35;5.00;;;30.40;99.90;;;;;;1799867;77;21178;-89
2023/05/14 12:12:22;;;;;;;12.68;5.17;;;30.30;99.90;;;;;;1814841;78;21149;-89
2023/05/14 12:14:54;;;;;;;6.62;4.70;;;30.30;99.90;;;;;;1809151;77;21068;-88
2023/05/14 12:17:27;;;;;;;10.78;5.47;;;30.20;99.90;;;;;;1801523;78;21115;-88
2023/05/14 12:19:58;;;;;;;9.95;5.08;;;30.10;99.90;;;;;;1817937;77;21108;-89
2023/05/14 12:22:40;;;;;;;10.70;5.20;;;30.00;99.90;;;;;;1810043;77;21177;-89
2023/05/14 12:25:13;;;;;;;;;;;30.00;99.90;;;;;;1817482;77;21242;-89
2023/05/14 12:27:52;;;;;;;7.70;5.20;;;29.90;99.90;;;;;;1808519;78;20109;-90
2023/05/14 12:30:24;;;;;;;10.72;5.83;;;29.90;99.90;;;;;;1803450;78;21235;-89
2023/05/14 12:33:04;;;;;;;8.78;5.20;;;29.90;99.90;;;;;;1806130;78;21162;-90
2023/05/14 12:36:00;;;;;;;10.03;5.72;;;29.80;99.90;;;;;;1783997;79;21133;-89
2023/05/14 12:38:39;;;;;;;10.43;6.12;;;29.80;99.90;;;;;;1804382;78;21157;-91
2023/05/14 12:41:18;;;;;;;8.63;5.55;;;29.80;99.90;;;;;;1797087;78;21197;-89
2023/05/14 12:43:51;;;;;;;9.15;6.50;;;29.80;99.90;;;;;;1805073;78;21251;-89
2023/05/14 12:46:26;;;;;;;8.90;6.25;;;29.70;99.90;;;;;;1796726;78;21181;-89
2023/05/14 12:48:57;;;;;;;9.93;6.42;;;29.70;99.90;;;;;;1804085;78;21122;-89
2023/05/14 12:51:38;;;;;;;10.60;6.40;;;29.70;99.90;;;;;;1792826;78;21102;-90
2023/05/14 12:54:10;;;;;;;;;;;29.70;99.90;;;;;;1801226;78;21693;-87
2023/05/14 12:56:52;;;;;;;8.28;5.15;;;29.70;99.90;;;;;;1810869;78;20243;-91
2023/05/14 12:59:26;;;;;;;10.13;5.10;;;29.70;99.90;;;;;;1772239;80;21253;-89
2023/05/14 13:02:17;;;;;;;11.10;5.33;;;29.60;99.90;;;;;;1777710;79;21107;-90
2023/05/14 13:04:49;;;;;;;16.73;5.37;;;29.60;99.90;;;;;;1756177;80;21178;-88
2023/05/14 13:07:36;;;;;;;;;;;;;;;;;;;;;
2023/05/14 13:10:20;;;;;;;13.22;6.12;;;29.50;99.90;;;;;;1768902;78;21166;-87
2023/05/14 13:13:03;;;;;;;11.97;6.20;;;29.40;99.90;;;;;;1778372;79;21248;-87
2023/05/14 13:15:45;;;;;;;9.98;5.90;;;29.40;99.90;;;;;;1792946;77;21170;-88
2023/05/14 13:21:16;;;;;;;9.10;5.65;;;29.40;99.90;;;;;;1785990;79;21302;-88
2023/05/14 13:23:40;;;;;;;9.35;6.12;;;29.40;99.90;;;;;;1781191;79;21330;-88